createdAt,value
2022-10-14T00:01:09.439Z,100762.81
2022-10-14T00:03:38.905Z,100757.81
2022-10-14T00:06:07.906Z,100749.63
2022-10-14T00:08:35.847Z,100752.81
2022-10-14T00:11:09.852Z,100755.97
2022-10-14T00:13:37.950Z,100756.13
2022-10-14T00:16:07.303Z,100754.13
2022-10-14T00:18:34.882Z,100752.28
2022-10-14T00:21:03.251Z,100756.81
2022-10-14T00:23:30.867Z,100752.13
2022-10-14T00:25:58.531Z,100756.94
2022-10-14T00:28:28.149Z,100761.78
2022-10-14T00:30:56.705Z,100757.94
2022-10-14T00:33:25.067Z,100751.28
2022-10-14T00:35:57.286Z,100755.59
2022-10-14T00:38:24.892Z,100755.94
2022-10-14T00:40:52.770Z,100757.97
2022-10-14T00:43:21.281Z,100754.47
2022-10-14T00:45:50.361Z,100753.78
2022-10-14T00:48:19.289Z,100749.13
2022-10-14T00:50:50.046Z,100754.47
2022-10-14T00:53:19.246Z,100752.44
2022-10-14T00:55:47.474Z,100762.81
2022-10-14T00:58:15.129Z,100746.13
2022-10-14T01:00:42.860Z,100749.16
2022-10-14T01:03:19.548Z,100746.28
2022-10-14T01:05:54.141Z,100742.13
2022-10-14T01:08:28.421Z,100750.31
2022-10-14T01:11:03.491Z,100740.47
2022-10-14T01:13:34.844Z,100750.78
2022-10-14T01:16:15.974Z,100738.47
2022-10-14T01:19:01.498Z,100738.09
2022-10-14T01:21:35.508Z,100733.13
2022-10-14T01:24:29.990Z,100736.78
2022-10-14T01:27:11.707Z,100733.44
2022-10-14T01:30:09.786Z,100735.78
2022-10-14T01:32:46.634Z,100733.63
2022-10-14T01:35:24.073Z,100731.97
2022-10-14T01:37:56.346Z,100727.78
2022-10-14T01:40:28.866Z,100721.63
2022-10-14T01:42:59.606Z,100721.81
2022-10-14T01:45:31.590Z,100719.97
2022-10-14T01:48:01.796Z,100720.97
2022-10-14T01:50:31.592Z,100714.44
2022-10-14T01:53:03.134Z,100713.44
2022-10-14T01:55:35.032Z,100714.97
2022-10-14T01:58:04.350Z,100713.28
2022-10-14T02:00:33.734Z,100710.63
2022-10-14T02:03:01.387Z,100710.47
2022-10-14T02:05:36.251Z,100708.97
2022-10-14T02:08:11.777Z,100700.13
2022-10-14T02:10:56.030Z,100694.59
2022-10-14T02:13:38.455Z,100692.44
2022-10-14T02:16:20.147Z,100695.28
2022-10-14T02:18:52.437Z,100691.09
2022-10-14T02:21:25.837Z,100676.09
2022-10-14T02:23:58.539Z,100676.09
2022-10-14T02:26:27.981Z,100672.56
2022-10-14T02:28:57.823Z,100662.72
2022-10-14T02:31:30.311Z,100664.09
2022-10-14T02:34:01.694Z,100663.72
2022-10-14T02:36:30.746Z,100654.72
2022-10-14T02:39:01.570Z,100645.53
2022-10-14T02:41:34.162Z,100648.06
2022-10-14T02:44:02.361Z,100646.53
2022-10-14T02:46:31.453Z,100643.03
2022-10-14T02:48:59.182Z,100641.03
2022-10-14T02:51:26.800Z,100641.34
2022-10-14T02:53:54.564Z,100644.00
2022-10-14T02:56:22.158Z,100637.66
2022-10-14T02:58:49.780Z,100641.19
2022-10-14T03:01:17.496Z,100641.00
2022-10-14T03:03:46.591Z,100639.84
2022-10-14T03:06:14.435Z,100634.66
2022-10-14T03:08:42.095Z,100631.00
2022-10-14T03:11:09.764Z,100630.81
2022-10-14T03:13:37.561Z,100625.16
2022-10-14T03:16:05.635Z,100621.47
2022-10-14T03:18:33.309Z,100620.31
2022-10-14T03:21:02.398Z,100620.31
2022-10-14T03:23:29.993Z,100619.94
2022-10-14T03:25:57.625Z,100612.59
2022-10-14T03:28:25.454Z,100603.09
2022-10-14T03:30:53.110Z,100611.09
2022-10-14T03:33:22.777Z,100610.59
2022-10-14T03:35:52.182Z,100608.09
2022-10-14T03:38:21.227Z,100605.59
2022-10-14T03:40:48.877Z,100596.06
2022-10-14T03:43:16.517Z,100603.25
2022-10-14T03:45:45.321Z,100603.25
2022-10-14T03:48:13.109Z,100598.25
2022-10-14T03:50:40.683Z,100600.41
2022-10-14T03:53:08.611Z,100603.09
2022-10-14T03:55:38.029Z,100603.59
2022-10-14T03:58:05.702Z,100599.13
2022-10-14T04:00:35.527Z,100604.97
2022-10-14T04:03:03.194Z,100603.97
2022-10-14T04:05:33.702Z,100606.63
2022-10-14T04:08:01.779Z,100592.94
2022-10-14T04:10:29.571Z,100597.94
2022-10-14T04:12:58.730Z,100590.44
2022-10-14T04:15:26.419Z,100590.97
2022-10-14T04:17:54.036Z,100596.81
2022-10-14T04:20:21.655Z,100594.16
2022-10-14T04:22:49.297Z,100602.00
2022-10-14T04:25:17.041Z,100596.97
2022-10-14T04:27:44.618Z,100601.50
2022-10-14T04:30:14.312Z,100599.34
2022-10-14T04:32:41.945Z,100591.19
2022-10-14T04:35:10.526Z,100580.66
2022-10-14T04:37:38.176Z,100579.16
2022-10-14T04:40:07.005Z,100580.84
2022-10-14T04:42:34.584Z,100576.47
2022-10-14T04:45:02.235Z,100565.28
2022-10-14T04:47:31.213Z,100565.94
2022-10-14T04:49:58.894Z,100558.94
2022-10-14T04:52:26.554Z,100563.91
2022-10-14T04:54:54.183Z,100553.94
2022-10-14T04:57:21.854Z,100562.94
2022-10-14T04:59:49.672Z,100563.94
2022-10-14T05:02:17.421Z,100554.59
2022-10-14T05:04:46.455Z,100555.59
2022-10-14T05:07:14.117Z,100553.09
2022-10-14T05:09:46.237Z,100552.59
2022-10-14T05:12:16.374Z,100545.25
2022-10-14T05:14:44.094Z,100541.25
2022-10-14T05:17:11.822Z,100539.91
2022-10-14T05:19:39.436Z,100542.41
2022-10-14T05:22:08.405Z,100532.56
2022-10-14T05:24:35.960Z,100544.41
2022-10-14T05:27:03.973Z,100545.25
2022-10-14T05:29:31.591Z,100545.09
2022-10-14T05:31:59.254Z,100545.91
2022-10-14T05:34:26.903Z,100535.78
2022-10-14T05:36:54.554Z,100532.28
2022-10-14T05:39:23.812Z,100539.91
2022-10-14T05:41:51.403Z,100536.59
2022-10-14T05:44:19.134Z,100532.56
2022-10-14T05:46:46.726Z,100527.91
2022-10-14T05:49:14.472Z,100528.56
2022-10-14T05:51:42.839Z,100530.88
2022-10-14T05:54:11.424Z,100529.84
2022-10-14T05:56:40.541Z,100529.84
2022-10-14T05:59:08.424Z,100539.25
2022-10-14T06:01:36.810Z,100542.72
2022-10-14T06:04:05.066Z,100542.53
2022-10-14T06:06:32.953Z,100538.88
2022-10-14T06:09:00.574Z,100543.22
2022-10-14T06:11:28.312Z,100542.53
2022-10-14T06:13:57.338Z,100541.72
2022-10-14T06:16:24.927Z,100535.75
2022-10-14T06:18:54.541Z,100533.25
2022-10-14T06:21:22.725Z,100536.56
2022-10-14T06:23:50.390Z,100532.88
2022-10-14T06:26:18.176Z,100534.06
2022-10-14T06:28:46.299Z,100535.53
2022-10-14T06:31:15.391Z,100529.38
2022-10-14T06:33:43.982Z,100528.56
2022-10-14T06:36:11.875Z,100534.53
2022-10-14T06:38:39.599Z,100528.19
2022-10-14T06:41:08.041Z,100534.69
2022-10-14T06:43:36.086Z,100533.06
2022-10-14T06:46:04.700Z,100526.69
2022-10-14T06:48:33.781Z,100521.19
2022-10-14T06:51:02.534Z,100524.69
2022-10-14T06:53:30.485Z,100520.00
2022-10-14T06:56:00.096Z,100515.44
2022-10-14T06:58:27.995Z,100523.47
2022-10-14T07:00:55.743Z,100526.44
2022-10-14T07:03:23.368Z,100522.41
2022-10-14T07:05:52.547Z,100523.41
2022-10-14T07:08:20.137Z,100519.06
2022-10-14T07:10:48.228Z,100522.41
2022-10-14T07:13:15.806Z,100531.91
2022-10-14T07:15:43.434Z,100532.75
2022-10-14T07:18:11.121Z,100529.53
2022-10-14T07:20:38.742Z,100523.03
2022-10-14T07:23:07.738Z,100514.47
2022-10-14T07:25:35.434Z,100516.97
2022-10-14T07:28:03.028Z,100516.97
2022-10-14T07:30:30.771Z,100519.28
2022-10-14T07:32:59.670Z,100515.94
2022-10-14T07:35:27.717Z,100523.78
2022-10-14T07:37:56.169Z,100523.63
2022-10-14T07:40:25.159Z,100522.06
2022-10-14T07:42:52.854Z,100517.28
2022-10-14T07:45:21.304Z,100510.09
2022-10-14T07:47:51.344Z,100516.22
2022-10-14T07:50:19.075Z,100513.94
2022-10-14T07:52:46.639Z,100521.13
2022-10-14T07:55:14.638Z,100516.72
2022-10-14T07:57:43.715Z,100509.06
2022-10-14T08:00:12.213Z,100513.56
2022-10-14T08:02:39.995Z,100524.91
2022-10-14T08:05:33.007Z,100515.06
2022-10-14T08:07:55.638Z,100519.75
2022-10-14T08:10:23.638Z,100517.91
2022-10-14T08:12:52.673Z,100519.09
2022-10-14T08:15:20.463Z,100520.41
2022-10-14T08:17:48.047Z,100518.03
2022-10-14T08:20:15.830Z,100523.72
2022-10-14T08:22:43.487Z,100510.88
2022-10-14T08:25:11.144Z,100515.81
2022-10-14T08:27:38.843Z,100513.81
2022-10-14T08:30:11.293Z,100519.03
2022-10-14T08:32:39.041Z,100519.47
2022-10-14T08:35:07.920Z,100521.13
2022-10-14T08:37:36.316Z,100513.94
2022-10-14T08:40:04.449Z,100508.44
2022-10-14T08:42:44.024Z,100516.28
2022-10-14T08:45:18.230Z,100512.41
2022-10-14T08:47:48.587Z,100511.38
2022-10-14T08:50:24.964Z,100505.50
2022-10-14T08:52:56.987Z,100505.88
2022-10-14T08:55:31.183Z,100502.66
2022-10-14T08:58:04.047Z,100498.25
2022-10-14T09:00:36.711Z,100496.91
2022-10-14T09:03:14.420Z,100492.28
2022-10-14T09:05:42.243Z,100500.41
2022-10-14T09:08:15.703Z,100496.34
2022-10-14T09:10:44.538Z,100493.31
2022-10-14T09:13:18.297Z,100493.78
2022-10-14T09:15:52.151Z,100490.47
2022-10-14T09:18:29.021Z,100490.81
2022-10-14T09:20:58.002Z,100486.41
2022-10-14T09:23:28.370Z,100485.00
2022-10-14T09:25:59.334Z,100484.00
2022-10-14T09:28:36.122Z,100473.31
2022-10-14T09:31:06.531Z,100474.59
2022-10-14T09:33:42.056Z,100464.91
2022-10-14T09:36:16.863Z,100468.88
2022-10-14T09:38:47.245Z,100462.78
2022-10-14T09:41:17.020Z,100461.97
2022-10-14T09:44:21.256Z,100465.47
2022-10-14T09:46:53.673Z,100450.41
2022-10-14T09:49:28.016Z,100442.75
2022-10-14T09:51:57.002Z,100454.13
2022-10-14T09:54:27.283Z,100448.38
2022-10-14T09:57:01.422Z,100451.03
2022-10-14T09:59:29.458Z,100440.34
2022-10-14T10:02:01.750Z,100440.81
2022-10-14T10:04:37.666Z,100439.78
2022-10-14T10:07:07.479Z,100420.75
2022-10-14T10:09:35.688Z,100425.47
2022-10-14T10:12:23.973Z,100411.06
2022-10-14T10:14:57.445Z,100412.41
2022-10-14T10:17:27.710Z,100415.31
2022-10-14T10:20:09.184Z,100408.38
2022-10-14T10:22:39.315Z,100404.69
2022-10-14T10:25:26.604Z,100409.78
2022-10-14T10:27:56.544Z,100407.63
2022-10-14T10:30:28.262Z,100402.34
2022-10-14T10:33:18.743Z,100400.31
2022-10-14T10:36:04.139Z,100399.72
2022-10-14T10:38:35.895Z,100393.72
2022-10-14T10:41:17.740Z,100406.28
2022-10-14T10:43:59.192Z,100393.41
2022-10-14T10:46:55.805Z,100393.78
2022-10-14T10:49:47.592Z,100395.16
2022-10-14T10:52:22.796Z,100390.22
2022-10-14T10:54:56.770Z,100389.00
2022-10-14T10:57:40.185Z,100392.72
2022-10-14T11:00:13.827Z,100390.88
2022-10-14T11:03:01.609Z,100378.66
2022-10-14T11:05:58.350Z,100382.00
2022-10-14T11:08:56.963Z,100382.13
2022-10-14T11:11:45.836Z,100376.91
2022-10-14T11:14:33.426Z,100365.38
2022-10-14T11:17:12.325Z,100372.56
2022-10-14T11:19:51.404Z,100369.16
2022-10-14T11:22:32.781Z,100365.47
2022-10-14T11:25:10.627Z,100363.31
2022-10-14T11:27:44.972Z,100356.06
2022-10-14T11:30:18.521Z,100354.75
2022-10-14T11:33:00.061Z,100352.72
2022-10-14T11:35:38.881Z,100348.16
2022-10-14T11:38:24.546Z,100344.06
2022-10-14T11:41:00.920Z,100349.31
2022-10-14T11:43:39.371Z,100337.31
2022-10-14T11:46:10.202Z,100336.41
2022-10-14T11:48:43.706Z,100331.69
2022-10-14T11:51:18.737Z,100335.94
2022-10-14T11:53:56.736Z,100333.72
2022-10-14T11:56:33.358Z,100329.28
2022-10-14T11:59:27.536Z,100332.16
2022-10-14T12:02:03.455Z,100323.09
2022-10-14T12:04:35.124Z,100319.41
2022-10-14T12:07:09.858Z,100320.59
2022-10-14T12:09:43.750Z,100316.72
2022-10-14T12:12:17.366Z,100309.50
2022-10-14T12:14:50.142Z,100304.59
2022-10-14T12:17:23.739Z,100299.69
2022-10-14T12:19:52.472Z,100299.28
2022-10-14T12:22:23.021Z,100291.91
2022-10-14T12:24:54.622Z,100284.31
2022-10-14T12:27:25.281Z,100289.69
2022-10-14T12:29:55.192Z,100287.19
2022-10-14T12:32:25.689Z,100284.19
2022-10-14T12:34:54.969Z,100287.69
2022-10-14T12:40:32.800Z,100280.47
2022-10-14T12:43:16.861Z,100290.59
2022-10-14T12:45:52.010Z,100288.75
2022-10-14T12:48:23.361Z,100289.59
2022-10-14T12:50:57.558Z,100297.38
2022-10-14T12:53:27.818Z,100293.66
2022-10-14T12:55:59.566Z,100286.72
2022-10-14T12:58:31.193Z,100287.53
2022-10-14T13:01:02.485Z,100282.59
2022-10-14T13:03:35.640Z,100284.91
2022-10-14T13:06:33.391Z,100289.69
2022-10-14T13:09:30.492Z,100283.06
2022-10-14T13:12:40.908Z,100282.22
2022-10-14T13:15:49.746Z,100275.03
2022-10-14T13:18:38.026Z,100272.34
2022-10-14T13:21:06.883Z,100267.16
2022-10-14T13:23:42.395Z,100262.91
2022-10-14T13:26:25.042Z,100263.28
2022-10-14T13:29:06.908Z,100253.06
2022-10-14T13:31:41.183Z,100251.81
2022-10-14T13:34:27.957Z,100248.94
2022-10-14T13:37:06.700Z,100235.16
2022-10-14T13:39:35.637Z,100230.03
2022-10-14T13:42:04.340Z,100225.50
2022-10-14T13:44:34.362Z,100220.78
2022-10-14T13:47:02.520Z,100216.28
2022-10-14T13:49:35.888Z,100206.19
2022-10-14T13:52:07.788Z,100209.91
2022-10-14T13:54:35.594Z,100206.19
2022-10-14T14:02:50.346Z,100208.72
2022-10-14T14:05:23.198Z,100202.75
2022-10-14T14:10:57.525Z,100210.34
2022-10-14T14:13:29.340Z,100204.97
2022-10-14T14:15:58.639Z,100207.03
2022-10-14T14:18:49.173Z,100206.63
2022-10-14T14:21:25.426Z,100197.94
2022-10-14T14:23:54.893Z,100201.25
2022-10-14T14:26:27.570Z,100194.25
2022-10-14T14:28:55.715Z,100188.63
2022-10-14T14:31:47.906Z,100185.94
2022-10-14T14:34:17.841Z,100191.72
2022-10-14T14:36:51.114Z,100196.44
2022-10-14T14:39:24.491Z,100192.13
2022-10-14T14:41:53.713Z,100183.06
2022-10-14T14:44:26.150Z,100182.44
2022-10-14T14:46:58.883Z,100179.72
2022-10-14T14:49:29.505Z,100177.66
2022-10-14T14:51:57.866Z,100184.63
2022-10-14T14:54:27.314Z,100178.44
2022-10-14T14:57:01.701Z,100185.25
2022-10-14T14:59:35.357Z,100188.09
2022-10-14T15:02:12.017Z,100169.31
2022-10-14T15:04:39.787Z,100171.41
2022-10-14T15:07:17.460Z,100164.19
2022-10-14T15:09:50.291Z,100152.00
2022-10-14T15:12:21.918Z,100150.59
2022-10-14T15:14:51.745Z,100157.78
2022-10-14T15:17:29.186Z,100164.81
2022-10-14T15:19:57.699Z,100164.56
2022-10-14T15:22:34.271Z,100158.59
2022-10-14T15:25:11.517Z,100160.88
2022-10-14T15:27:52.171Z,100156.53
2022-10-14T15:30:37.981Z,100149.50
2022-10-14T15:33:15.024Z,100147.66
2022-10-14T15:35:43.364Z,100156.50
2022-10-14T15:38:16.405Z,100154.47
2022-10-14T15:40:45.208Z,100154.84
2022-10-14T15:43:17.493Z,100162.69
2022-10-14T15:45:47.218Z,100162.66
2022-10-14T15:48:19.850Z,100147.63
2022-10-14T15:50:48.429Z,100132.19
2022-10-14T15:53:18.257Z,100132.19
2022-10-14T15:55:45.842Z,100135.44
2022-10-14T15:58:14.728Z,100134.19
2022-10-14T16:00:42.394Z,100137.28
2022-10-14T16:03:11.658Z,100140.78
2022-10-14T16:05:40.748Z,100132.94
2022-10-14T16:08:13.629Z,100129.66
2022-10-14T16:10:43.824Z,100124.31
2022-10-14T16:13:12.821Z,100126.56
2022-10-14T16:15:47.340Z,100119.97
2022-10-14T16:18:15.144Z,100124.31
2022-10-14T16:20:44.051Z,100122.47
2022-10-14T16:23:15.633Z,100124.91
2022-10-14T16:25:45.911Z,100121.00
2022-10-14T16:28:14.339Z,100115.41
2022-10-14T16:30:49.300Z,100115.19
2022-10-14T16:33:17.987Z,100113.34
2022-10-14T16:35:51.857Z,100114.38
2022-10-14T16:38:19.944Z,100113.13
2022-10-14T16:40:55.056Z,100116.81
2022-10-14T16:43:22.657Z,100111.47
2022-10-14T16:45:50.249Z,100110.84
2022-10-14T16:48:19.748Z,100113.50
2022-10-14T16:50:51.122Z,100115.16
2022-10-14T16:53:36.978Z,100113.94
2022-10-14T16:56:25.424Z,100112.50
2022-10-14T16:58:53.059Z,100117.66
2022-10-14T17:01:20.830Z,100104.25
2022-10-14T17:03:48.515Z,100105.72
2022-10-14T17:06:21.711Z,100092.72
2022-10-14T17:08:52.147Z,100102.78
2022-10-14T17:11:20.287Z,100093.09
2022-10-14T17:13:48.254Z,100100.72
2022-10-14T17:16:15.936Z,100101.75
2022-10-14T17:18:43.994Z,100100.91
2022-10-14T17:21:13.605Z,100099.91
2022-10-14T17:23:44.458Z,100113.28
2022-10-14T17:26:14.302Z,100110.56
2022-10-14T17:28:43.078Z,100111.00
2022-10-14T17:31:13.061Z,100098.63
2022-10-14T17:33:41.506Z,100109.34
2022-10-14T17:36:17.786Z,100097.78
2022-10-14T17:38:47.332Z,100108.50
2022-10-14T17:41:15.945Z,100106.63
2022-10-14T17:43:43.707Z,100095.31
2022-10-14T17:46:12.692Z,100105.41
2022-10-14T17:48:42.181Z,100112.19
2022-10-14T17:51:10.697Z,100115.47
2022-10-14T17:53:39.071Z,100114.28
2022-10-14T17:56:10.001Z,100116.72
2022-10-14T17:58:37.799Z,100126.63
2022-10-14T18:01:06.643Z,100115.47
2022-10-14T18:03:34.793Z,100116.50
2022-10-14T18:06:09.978Z,100120.44
2022-10-14T18:08:38.390Z,100113.44
2022-10-14T18:11:11.097Z,100117.56
2022-10-14T18:16:09.857Z,100107.66
2022-10-14T18:18:37.857Z,100103.97
2022-10-14T18:21:05.918Z,100099.91
2022-10-14T18:23:35.789Z,100094.53
2022-10-14T18:26:08.228Z,100093.25
2022-10-14T18:28:42.996Z,100087.28
2022-10-14T18:31:13.313Z,100087.28
2022-10-14T18:33:41.817Z,100088.31
2022-10-14T18:36:11.144Z,100093.03
2022-10-14T18:38:38.890Z,100098.59
2022-10-14T18:41:08.229Z,100089.94
2022-10-14T18:43:35.827Z,100092.63
2022-10-14T18:46:06.556Z,100090.38
2022-10-14T18:48:34.220Z,100090.38
2022-10-14T18:51:02.771Z,100083.75
2022-10-14T18:53:32.110Z,100081.69
2022-10-14T18:56:05.376Z,100087.06
2022-10-14T18:58:36.854Z,100075.91
2022-10-14T19:01:08.254Z,100072.66
2022-10-14T19:03:36.034Z,100072.66
2022-10-14T19:06:03.629Z,100063.16
2022-10-14T19:08:31.249Z,100071.19
2022-10-14T19:11:02.847Z,100059.25
2022-10-14T19:13:30.699Z,100057.53
2022-10-14T19:16:02.011Z,100049.97
2022-10-14T19:18:30.978Z,100061.72
2022-10-14T19:21:04.835Z,100060.41
2022-10-14T19:23:32.508Z,100054.03
2022-10-14T19:26:05.243Z,100045.75
2022-10-14T19:28:33.177Z,100044.13
2022-10-14T19:31:05.941Z,100041.22
2022-10-14T19:33:36.231Z,100036.66
2022-10-14T19:36:03.902Z,100033.31
2022-10-14T19:38:31.526Z,100027.53
2022-10-14T19:41:02.604Z,100023.00
2022-10-14T19:43:30.313Z,100004.91
2022-10-14T19:45:58.672Z,100008.19
2022-10-14T19:48:26.862Z,100004.69
2022-10-14T19:51:04.578Z,99998.69
2022-10-14T19:53:34.728Z,100006.28
2022-10-14T19:56:08.685Z,99994.00
2022-10-14T19:58:38.588Z,99992.53
2022-10-14T20:01:09.501Z,99995.03
2022-10-14T20:03:37.329Z,99982.25
2022-10-14T20:06:07.597Z,99984.31
2022-10-14T20:08:35.527Z,99986.16
2022-10-14T20:11:05.690Z,99984.69
2022-10-14T20:13:33.526Z,99982.84
2022-10-14T20:16:03.025Z,99981.63
2022-10-14T20:18:32.208Z,99988.00
2022-10-14T20:21:01.858Z,99983.28
2022-10-14T20:23:30.936Z,99977.75
2022-10-14T20:26:00.888Z,99981.81
2022-10-14T20:28:28.902Z,99980.16
2022-10-14T20:30:57.394Z,99971.13
2022-10-14T20:33:25.770Z,99981.81
2022-10-14T20:36:00.952Z,99978.31
2022-10-14T20:38:30.945Z,99976.03
2022-10-14T20:41:04.598Z,99973.56
2022-10-14T20:43:32.410Z,99968.22
2022-10-14T20:46:00.006Z,99967.81
2022-10-14T20:48:27.643Z,99962.06
2022-10-14T20:50:55.285Z,99963.72
2022-10-14T20:53:23.236Z,99961.44
2022-10-14T20:55:52.243Z,99957.94
2022-10-14T20:58:20.962Z,99957.09
2022-10-14T21:00:48.606Z,99960.59
2022-10-14T21:03:16.455Z,99951.34
2022-10-14T21:05:44.070Z,99950.50
2022-10-14T21:08:11.720Z,99947.66
2022-10-14T21:10:39.357Z,99935.28
2022-10-14T21:13:08.479Z,99935.69
2022-10-14T21:15:36.119Z,99935.91
2022-10-14T21:18:03.770Z,99927.88
2022-10-14T21:20:31.453Z,99927.00
2022-10-14T21:22:59.069Z,99923.75
2022-10-14T21:25:26.689Z,99924.38
2022-10-14T21:27:54.539Z,99922.50
2022-10-14T21:30:23.520Z,99914.50
2022-10-14T21:32:51.128Z,99918.81
2022-10-14T21:35:19.043Z,99914.72
2022-10-14T21:37:46.721Z,99909.78
2022-10-14T21:40:14.982Z,99909.38
2022-10-14T21:42:42.639Z,99894.75
2022-10-14T21:45:10.996Z,99891.22
2022-10-14T21:47:40.037Z,99892.50
2022-10-14T21:50:08.829Z,99892.88
2022-10-14T21:52:36.570Z,99893.25
2022-10-14T21:55:04.234Z,99882.19
2022-10-14T21:57:31.917Z,99881.16
2022-10-14T21:59:59.575Z,99881.16
2022-10-14T22:02:27.330Z,99873.13
2022-10-14T22:04:56.344Z,99871.03
2022-10-14T22:07:24.284Z,99870.44
2022-10-14T22:09:52.294Z,99867.16
2022-10-14T22:12:20.089Z,99866.31
2022-10-14T22:14:47.702Z,99857.47
2022-10-14T22:17:15.278Z,99854.78
2022-10-14T22:19:43.011Z,99853.13
2022-10-14T22:22:11.993Z,99848.03
2022-10-14T22:24:39.613Z,99851.91
2022-10-14T22:27:07.463Z,99845.56
2022-10-14T22:29:35.106Z,99856.63
2022-10-14T22:32:02.679Z,99853.78
2022-10-14T22:34:30.508Z,99852.13
2022-10-14T22:36:59.437Z,99846.75
2022-10-14T22:39:28.389Z,99847.41
2022-10-14T22:41:55.993Z,99841.66
2022-10-14T22:44:23.633Z,99836.47
2022-10-14T22:46:51.437Z,99840.78
2022-10-14T22:49:19.073Z,99834.03
2022-10-14T22:51:46.768Z,99836.91
2022-10-14T22:54:14.440Z,99831.75
2022-10-14T22:56:43.896Z,99829.06
2022-10-14T22:59:12.594Z,99828.03
2022-10-14T23:01:41.042Z,99829.47
2022-10-14T23:04:09.703Z,99826.38
2022-10-14T23:06:37.699Z,99827.41
2022-10-14T23:09:05.946Z,99824.53
2022-10-14T23:11:33.739Z,99827.66
2022-10-14T23:14:06.169Z,99823.31
2022-10-14T23:16:35.525Z,99822.06
2022-10-14T23:19:03.119Z,99822.47
2022-10-14T23:21:32.809Z,99815.09
2022-10-14T23:24:02.718Z,99815.50
2022-10-14T23:26:33.103Z,99820.00
2022-10-14T23:29:06.829Z,99816.31
2022-10-14T23:31:37.062Z,99806.66
2022-10-14T23:34:06.495Z,99807.28
2022-10-14T23:36:34.320Z,99808.94
2022-10-14T23:39:01.912Z,99805.25
2022-10-14T23:41:29.608Z,99801.53
2022-10-14T23:43:57.182Z,99799.88
2022-10-14T23:46:26.236Z,99804.41
2022-10-14T23:49:06.700Z,99799.47
2022-10-14T23:51:35.329Z,99797.41
2022-10-14T23:54:03.066Z,99798.03
2022-10-14T23:56:30.703Z,99801.94
2022-10-14T23:58:58.393Z,99802.38
